Terminal Aerodrome Forecast
Issued by NWS Wakefield, VA

Home | Current Version | Previous Version | Text Only | Print | Product List | Glossary On
Versions: 1 2 3 4 5 6 7 8 9 10 11 12 13 14
000
FTUS41 KAKQ 212300
TAFRIC
TAF
KRIC 212320Z 2200/2224 08003KT P6SM SKC
     FM220700 06004KT P6SM OVC050
     FM221100 04006KT 5SM -RA BR OVC040
     FM221500 02008KT 2SM -RA BR OVC009
     FM221800 01006KT 4SM -DZ BR OVC006=

USA.gov is the U.S. government's official web portal to all federal, state and local government web resources and services.